• °C
  • Pobieranie danych...
wx

PRINT OUT SECTION, show »

METAR EPCE 122000Z 28012KT 9999 BKN039 14/08
Q1009 RMK 137 069 5/5=

METAR EPDA 122000Z 29018G29KT 9999 FEW027 16/09
Q1011 RMK 156 066 1/1=

METAR EPDE 122000Z 28008KT 8000 -RA FEW007 SCT025 OVC045 16/14 Q1009
RMK 157 092 8/2=

METAR EPIR 122000Z 25012KT CAVOK 13/13 Q1011 RMK 134 095 2/2=

METAR EPKS 122000Z 28006KT 9999 -SHRA BKN050CB 14/12 Q1014 RMK 140
089 7/7=

METAR COR EPLK 122000Z 29012KT 9999 SCT013 BKN060 14/14 Q1012 RMK 139
100 6/3=

METAR EPLY 122000Z 29006KT 9999 SCT040 14/12 Q1012 RMK 139 089 3/3=

METAR EPMB 122000Z 36009KT 9999 SCT060 14/09 Q1009 RMK 142 073 3/3=

METAR EPMI 122000Z 31009KT 9999 SCT040 13/10 Q1013 RMK 128 084 4/4=

METAR EPMM 122000Z 28007KT 5000 SHRA SCT006 BKN020CB OVC070 15/15
Q1008 RMK 146 100 8/3=

METAR EPNA 122000Z NIL=

METAR EPOK 122000Z 29012KT 9999 FEW065 14/08
Q1008 RMK 139 068 2/2=

METAR EPPR 122000Z 28010KT 9999 FEW058 14/06 Q1009 RMK 141 059 2/2=

METAR EPPW 122000Z 28006KT CAVOK 12/11 Q1012
RMK 115 097 2/2 =

METAR EPRA 122000Z 31004KT 9999 -RA SCT030 OVC050 15/13 Q1010 RMK 146
092 8/4=

METAR EPSN 122000Z 31010KT 9999 SCT050 14/07 Q1013 RMK 137 062 4/4=

METAR EPTM 122000Z AUTO 29008KT VV068 14/12 Q1010 RMK 140 090 ///=



IMGW-PIB Sites